Time;durP1;ratioP1;P1;durP2;ratioP2;P2;SDS_P1;SDS_P2;PMS_P1;PMS_P2;Temp;Humidity;BMP_temperature;BMP_pressure;BME280_temperature;BME280_humidity;BME280_pressure;Samples;Min_cycle;Max_cycle;Signal;HPM_P1;HPM_P2
2023/05/06 00:01:20;;;;;;;6.13;3.90;;;14.00;99.90;;;;;;5086216;28;20205;-70
2023/05/06 00:03:47;;;;;;;6.20;4.53;;;14.10;99.90;;;;;;5099136;28;20244;-70
2023/05/06 00:06:14;;;;;;;6.33;4.57;;;14.20;99.90;;;;;;5088364;28;20319;-70
2023/05/06 00:08:41;;;;;;;6.20;4.03;;;14.20;99.90;;;;;;5100294;28;20259;-69
2023/05/06 00:11:08;;;;;;;5.53;3.73;;;14.10;99.90;;;;;;5105286;28;20300;-70
2023/05/06 00:13:37;;;;;;;6.50;3.87;;;14.20;99.90;;;;;;5105108;28;20286;-69
2023/05/06 00:16:04;;;;;;;6.03;4.20;;;14.10;99.90;;;;;;5105487;28;20202;-69
2023/05/06 00:18:31;;;;;;;5.97;4.30;;;14.10;99.90;;;;;;5105504;28;20288;-70
2023/05/06 00:20:58;;;;;;;6.10;4.17;;;14.10;99.90;;;;;;5105559;28;20923;-69
2023/05/06 00:23:25;;;;;;;4.63;4.03;;;14.20;99.90;;;;;;5095466;28;20238;-70
2023/05/06 00:25:53;;;;;;;4.13;3.73;;;14.20;99.90;;;;;;5084977;28;20215;-69
2023/05/06 00:28:20;;;;;;;5.07;3.97;;;14.20;99.90;;;;;;5085595;28;20575;-70
2023/05/06 00:30:48;;;;;;;6.07;4.10;;;14.20;99.90;;;;;;5120949;28;20212;-71
2023/05/06 00:33:15;;;;;;;6.00;4.00;;;14.20;99.90;;;;;;5085281;27;20289;-70
2023/05/06 00:35:42;;;;;;;4.80;3.93;;;14.20;99.90;;;;;;5099547;28;20300;-71
2023/05/06 00:38:11;;;;;;;5.57;4.17;;;14.20;99.90;;;;;;5105687;28;20202;-70
2023/05/06 00:40:38;;;;;;;4.20;3.80;;;14.10;99.90;;;;;;5105891;28;20210;-72
2023/05/06 00:43:05;;;;;;;4.60;4.17;;;14.00;99.90;;;;;;5089206;28;20873;-72
2023/05/06 00:45:33;;;;;;;5.77;4.23;;;14.00;99.90;;;;;;5089755;28;20215;-72
2023/05/06 00:48:02;;;;;;;6.93;4.07;;;14.00;99.90;;;;;;5089940;28;20205;-72
2023/05/06 00:50:31;;;;;;;6.07;3.80;;;14.00;99.90;;;;;;5089572;28;20297;-71
2023/05/06 00:52:58;;;;;;;4.40;4.00;;;13.90;99.90;;;;;;5089928;28;20217;-72
2023/05/06 00:55:25;;;;;;;5.30;4.27;;;13.90;99.90;;;;;;5089177;28;20213;-71
2023/05/06 00:57:53;;;;;;;6.13;4.40;;;13.70;99.90;;;;;;5089704;28;20251;-71
2023/05/06 01:00:20;;;;;;;3.80;3.57;;;13.70;99.90;;;;;;5102991;28;20271;-72
2023/05/06 01:02:47;;;;;;;4.27;3.97;;;13.60;99.90;;;;;;5093032;28;20230;-71
2023/05/06 01:05:17;;;;;;;4.70;4.13;;;13.60;99.90;;;;;;5089287;28;20704;-71
2023/05/06 01:07:51;;;;;;;4.70;4.30;;;13.50;99.90;;;;;;5095330;28;20262;-71
2023/05/06 01:10:24;;;;;;;5.30;3.97;;;13.40;99.90;;;;;;5109155;28;20195;-71
2023/05/06 01:13:01;;;;;;;4.73;4.10;;;13.40;99.90;;;;;;5091940;28;20317;-71
2023/05/06 01:15:33;;;;;;;5.77;4.00;;;13.50;99.90;;;;;;5088812;28;20635;-71
2023/05/06 01:18:04;;;;;;;4.90;4.37;;;13.50;99.90;;;;;;5089305;28;20727;-71
2023/05/06 01:20:33;;;;;;;4.90;4.50;;;13.50;99.90;;;;;;5089661;28;20244;-71
2023/05/06 01:23:01;;;;;;;5.77;3.97;;;13.40;99.90;;;;;;5109519;28;20332;-71
2023/05/06 01:25:31;;;;;;;5.10;4.60;;;13.40;99.90;;;;;;5109144;28;20202;-71
2023/05/06 01:27:58;;;;;;;5.63;4.27;;;13.40;99.90;;;;;;5108704;28;20226;-71
2023/05/06 01:30:30;;;;;;;5.13;4.07;;;13.40;99.90;;;;;;5092223;28;20291;-71
2023/05/06 01:33:06;;;;;;;4.17;3.77;;;13.40;99.90;;;;;;5089005;28;20295;-71
2023/05/06 01:35:49;;;;;;;5.20;4.03;;;13.30;99.90;;;;;;5088189;28;20282;-71
2023/05/06 01:38:24;;;;;;;4.40;4.00;;;13.30;99.90;;;;;;5103905;28;20280;-71
2023/05/06 01:40:55;;;;;;;5.33;4.00;;;13.40;99.90;;;;;;5108847;28;20200;-71
2023/05/06 01:43:26;;;;;;;4.47;4.07;;;13.40;99.90;;;;;;5108663;28;20253;-71
2023/05/06 01:45:55;;;;;;;10.27;4.60;;;13.40;99.90;;;;;;5108829;28;20740;-71
2023/05/06 01:48:24;;;;;;;4.63;4.10;;;13.40;99.90;;;;;;5093144;28;20202;-71
2023/05/06 01:50:51;;;;;;;7.73;4.50;;;13.30;99.90;;;;;;5088543;28;20672;-71
2023/05/06 01:53:18;;;;;;;4.50;4.17;;;13.30;99.90;;;;;;5088299;28;20673;-71
2023/05/06 01:55:45;;;;;;;4.53;4.13;;;13.20;99.90;;;;;;5087066;28;20223;-71
2023/05/06 01:58:13;;;;;;;6.40;4.70;;;13.30;99.90;;;;;;5101659;28;20213;-70
2023/05/06 02:00:40;;;;;;;6.00;4.60;;;13.20;99.90;;;;;;5097772;28;20210;-70
2023/05/06 02:03:07;;;;;;;5.83;4.10;;;13.20;99.90;;;;;;5088174;28;20251;-70
2023/05/06 02:05:34;;;;;;;5.50;4.60;;;13.20;99.90;;;;;;5093778;28;20297;-70
2023/05/06 02:08:01;;;;;;;5.23;4.70;;;13.10;99.90;;;;;;5105337;28;20203;-70
2023/05/06 02:10:28;;;;;;;10.30;4.90;;;13.00;99.90;;;;;;5108241;28;20288;-69
2023/05/06 02:12:55;;;;;;;5.30;4.57;;;12.80;99.90;;;;;;5108283;28;20321;-69
2023/05/06 02:15:23;;;;;;;6.80;4.90;;;12.80;99.90;;;;;;5107974;28;20206;-69
2023/05/06 02:17:50;;;;;;;5.83;4.43;;;12.80;99.90;;;;;;5097444;28;20669;-69
2023/05/06 02:20:17;;;;;;;4.90;4.50;;;12.90;99.90;;;;;;5087780;28;20282;-70
2023/05/06 02:22:44;;;;;;;5.23;4.77;;;12.80;99.90;;;;;;5107184;28;20229;-69
2023/05/06 02:25:11;;;;;;;6.57;5.10;;;12.80;99.90;;;;;;5108235;28;20325;-70
2023/05/06 02:27:37;;;;;;;6.43;4.50;;;12.70;99.90;;;;;;5107378;28;20388;-70
2023/05/06 02:30:06;;;;;;;5.83;4.57;;;12.60;99.90;;;;;;5108698;28;20297;-70
2023/05/06 02:32:35;;;;;;;6.40;4.90;;;12.50;99.90;;;;;;5108320;28;20242;-71
2023/05/06 02:35:02;;;;;;;6.50;5.00;;;12.40;99.90;;;;;;5108183;28;20213;-70
2023/05/06 02:37:28;;;;;;;5.13;4.60;;;12.40;99.90;;;;;;5101423;28;20241;-70
2023/05/06 02:39:55;;;;;;;7.73;5.17;;;12.40;99.90;;;;;;5087507;28;20294;-70
2023/05/06 02:42:22;;;;;;;5.97;4.83;;;12.30;99.90;;;;;;5087641;28;20306;-70
2023/05/06 02:44:49;;;;;;;6.97;4.60;;;12.30;99.90;;;;;;5087454;28;20273;-70
2023/05/06 02:47:16;;;;;;;6.20;4.63;;;12.30;99.90;;;;;;5091720;28;20611;-70
2023/05/06 02:49:44;;;;;;;6.40;4.80;;;12.40;99.90;;;;;;5107793;28;20210;-70
2023/05/06 02:52:11;;;;;;;6.33;4.57;;;12.50;99.90;;;;;;5107484;28;20986;-70
2023/05/06 02:54:38;;;;;;;5.20;4.67;;;12.40;99.90;;;;;;5107984;28;20309;-70
2023/05/06 02:57:05;;;;;;;5.30;4.80;;;12.40;99.90;;;;;;5098552;28;20629;-70
2023/05/06 02:59:32;;;;;;;6.17;4.50;;;12.50;99.90;;;;;;5101989;27;20237;-70
2023/05/06 03:01:59;;;;;;;6.30;5.00;;;12.60;99.90;;;;;;5128343;27;20292;-70
2023/05/06 03:04:25;;;;;;;5.77;5.13;;;12.50;99.90;;;;;;5118106;27;20234;-70
2023/05/06 03:06:54;;;;;;;5.10;4.60;;;12.50;99.90;;;;;;5094858;27;20291;-70
2023/05/06 03:09:21;;;;;;;5.57;4.90;;;12.60;99.90;;;;;;5107457;28;20236;-70
2023/05/06 03:11:49;;;;;;;5.40;4.43;;;12.60;99.90;;;;;;5107306;28;20237;-70
2023/05/06 03:14:16;;;;;;;6.83;4.63;;;12.60;99.90;;;;;;5107486;28;20202;-70
2023/05/06 03:16:43;;;;;;;7.87;5.10;;;12.60;99.90;;;;;;5104332;28;20208;-70
2023/05/06 03:19:10;;;;;;;9.70;4.53;;;12.60;99.90;;;;;;5107232;28;20209;-70
2023/05/06 03:21:37;;;;;;;6.33;5.00;;;12.60;99.90;;;;;;5107200;28;20252;-69
2023/05/06 03:24:06;;;;;;;7.03;4.73;;;12.50;99.90;;;;;;5106799;28;20765;-71
2023/05/06 03:26:32;;;;;;;5.20;4.50;;;12.40;99.90;;;;;;5088970;28;20289;-71
2023/05/06 03:28:59;;;;;;;5.57;5.07;;;12.30;99.90;;;;;;5089001;28;20742;-71
2023/05/06 03:31:26;;;;;;;5.10;4.60;;;12.30;99.90;;;;;;5106283;28;20966;-71
2023/05/06 03:33:53;;;;;;;5.10;4.70;;;12.20;99.90;;;;;;5106651;28;20328;-71
2023/05/06 03:36:22;;;;;;;8.97;5.03;;;12.20;99.90;;;;;;5104890;28;20293;-70
2023/05/06 03:38:52;;;;;;;5.30;4.80;;;12.20;99.90;;;;;;5107035;28;20316;-70
2023/05/06 03:41:20;;;;;;;5.90;4.60;;;12.20;99.90;;;;;;5106650;28;20206;-70
2023/05/06 03:43:47;;;;;;;7.17;5.10;;;12.10;99.90;;;;;;5105123;28;20214;-71
2023/05/06 03:46:14;;;;;;;6.17;5.20;;;12.10;99.90;;;;;;5091929;28;20294;-71
2023/05/06 03:48:41;;;;;;;5.17;4.20;;;12.20;99.90;;;;;;5086363;28;20294;-70
2023/05/06 03:51:08;;;;;;;5.00;4.60;;;12.20;99.90;;;;;;5085913;28;20207;-70
2023/05/06 03:53:35;;;;;;;5.70;4.40;;;12.10;99.90;;;;;;5090084;28;20302;-70
2023/05/06 03:56:02;;;;;;;6.10;4.40;;;12.10;99.90;;;;;;5086092;28;20250;-70
2023/05/06 03:58:30;;;;;;;5.43;4.93;;;12.00;99.90;;;;;;5086355;28;20313;-70
2023/05/06 04:00:59;;;;;;;7.77;4.40;;;12.00;99.90;;;;;;5098072;28;20301;-70
2023/05/06 04:03:26;;;;;;;5.00;4.60;;;12.00;99.90;;;;;;5106078;28;20212;-69
2023/05/06 04:05:53;;;;;;;5.40;4.60;;;12.00;99.90;;;;;;5094691;28;20230;-70
2023/05/06 04:08:20;;;;;;;4.83;4.20;;;12.00;99.90;;;;;;5085118;28;20741;-69
2023/05/06 04:10:47;;;;;;;5.60;5.10;;;11.90;99.90;;;;;;5085013;28;20211;-69
2023/05/06 04:13:14;;;;;;;5.77;4.43;;;11.90;99.90;;;;;;5087866;28;20716;-69
2023/05/06 04:15:42;;;;;;;7.00;4.47;;;11.90;99.90;;;;;;5096748;28;20232;-69
2023/05/06 04:18:09;;;;;;;4.87;4.47;;;11.90;99.90;;;;;;5084440;28;20506;-69
2023/05/06 04:20:36;;;;;;;6.27;4.90;;;11.90;99.90;;;;;;5099029;28;20218;-69
2023/05/06 04:23:03;;;;;;;5.60;4.97;;;11.80;99.90;;;;;;5105931;28;20309;-69
2023/05/06 04:25:30;;;;;;;7.60;4.77;;;11.90;99.90;;;;;;5103812;28;20222;-69
2023/05/06 04:27:57;;;;;;;5.40;4.90;;;11.90;99.90;;;;;;5105915;28;20668;-69
2023/05/06 04:30:24;;;;;;;6.77;5.07;;;11.90;99.90;;;;;;5091871;28;20207;-69
2023/05/06 04:32:52;;;;;;;7.13;5.30;;;11.90;99.90;;;;;;5085781;28;20293;-69
2023/05/06 04:35:20;;;;;;;5.97;4.87;;;11.80;99.90;;;;;;5085725;28;20209;-68
2023/05/06 04:37:47;;;;;;;4.93;4.53;;;11.90;99.90;;;;;;5085916;28;20207;-69
2023/05/06 04:40:14;;;;;;;5.80;4.90;;;11.80;99.90;;;;;;5085202;28;20758;-69
2023/05/06 04:42:41;;;;;;;5.90;5.10;;;11.60;99.90;;;;;;5085326;28;20242;-69
2023/05/06 04:45:10;;;;;;;7.10;5.00;;;11.50;99.90;;;;;;5085866;28;20222;-69
2023/05/06 04:47:37;;;;;;;5.70;4.70;;;11.60;99.90;;;;;;5090602;28;20286;-69
2023/05/06 04:50:06;;;;;;;5.10;4.70;;;11.50;99.90;;;;;;5088598;28;20322;-69
2023/05/06 04:52:33;;;;;;;7.60;4.93;;;11.60;99.90;;;;;;5084999;28;20202;-70
2023/05/06 04:54:59;;;;;;;5.10;4.70;;;11.60;99.90;;;;;;5085140;28;20223;-69
2023/05/06 04:57:26;;;;;;;6.80;4.77;;;11.60;99.90;;;;;;5113340;28;20320;-69
2023/05/06 04:59:53;;;;;;;5.67;5.00;;;11.60;99.90;;;;;;5115988;27;20234;-69
2023/05/06 05:02:20;;;;;;;5.47;4.67;;;11.70;99.90;;;;;;5105292;28;20294;-69
2023/05/06 05:04:47;;;;;;;5.80;5.23;;;11.60;99.90;;;;;;5105187;28;20703;-68
2023/05/06 05:07:15;;;;;;;7.63;5.57;;;11.60;99.90;;;;;;5103438;28;20209;-68
2023/05/06 05:09:42;;;;;;;5.57;4.57;;;11.50;99.90;;;;;;5105830;28;20298;-69
2023/05/06 05:12:09;;;;;;;5.70;4.93;;;11.50;99.90;;;;;;5092702;28;20238;-69
2023/05/06 05:14:36;;;;;;;6.40;4.83;;;11.50;99.90;;;;;;5096662;28;20821;-68
2023/05/06 05:17:03;;;;;;;7.07;5.07;;;11.60;99.90;;;;;;5093409;28;20483;-69
2023/05/06 05:19:30;;;;;;;6.17;5.00;;;11.40;99.90;;;;;;5098421;28;20289;-69
2023/05/06 05:21:57;;;;;;;5.50;5.00;;;11.40;99.90;;;;;;5098965;28;20212;-69
2023/05/06 05:24:25;;;;;;;5.70;5.00;;;11.50;99.90;;;;;;5097721;28;20218;-67
2023/05/06 05:26:52;;;;;;;9.47;4.90;;;11.50;99.90;;;;;;5098638;28;20285;-68
2023/05/06 05:29:19;;;;;;;5.97;5.37;;;11.50;99.90;;;;;;5096712;27;20705;-68
2023/05/06 05:31:45;;;;;;;6.83;5.50;;;11.50;99.90;;;;;;5099504;28;20349;-68
2023/05/06 05:34:12;;;;;;;9.23;5.43;;;11.50;99.90;;;;;;5102284;28;20743;-68
2023/05/06 05:36:39;;;;;;;5.30;4.80;;;11.40;99.90;;;;;;5096124;28;20230;-69
2023/05/06 05:39:06;;;;;;;4.90;4.50;;;11.50;99.90;;;;;;5100031;28;20301;-69
2023/05/06 05:41:34;;;;;;;5.80;5.30;;;11.60;99.90;;;;;;5098321;28;20220;-69
2023/05/06 05:44:01;;;;;;;7.67;5.30;;;11.50;99.90;;;;;;5095314;28;20570;-69
2023/05/06 05:46:28;;;;;;;7.60;5.10;;;11.50;99.90;;;;;;5099529;28;20325;-69
2023/05/06 05:48:55;;;;;;;5.63;5.10;;;11.50;99.90;;;;;;5091471;28;20695;-69
2023/05/06 05:51:22;;;;;;;5.50;5.00;;;11.50;99.90;;;;;;5086544;28;20329;-69
2023/05/06 05:53:50;;;;;;;5.33;4.83;;;11.50;99.90;;;;;;5101885;28;20202;-68
2023/05/06 05:56:17;;;;;;;6.23;5.07;;;11.60;99.90;;;;;;5106562;28;20279;-69
2023/05/06 05:58:46;;;;;;;5.67;5.17;;;11.70;99.90;;;;;;5103359;28;20278;-69
2023/05/06 06:01:13;;;;;;;6.80;5.13;;;11.70;99.90;;;;;;5103372;27;20293;-69
2023/05/06 06:03:41;;;;;;;6.23;5.10;;;11.70;99.90;;;;;;5086700;28;20635;-69
2023/05/06 06:06:08;;;;;;;5.60;5.13;;;11.80;99.90;;;;;;5095586;28;20325;-69
2023/05/06 06:08:35;;;;;;;6.83;4.97;;;11.80;99.90;;;;;;5091758;28;20285;-69
2023/05/06 06:11:03;;;;;;;5.80;5.30;;;11.80;99.90;;;;;;5088876;28;20201;-70
2023/05/06 06:13:30;;;;;;;5.67;5.17;;;11.70;99.90;;;;;;5099906;28;20216;-69
2023/05/06 06:15:59;;;;;;;6.80;5.10;;;11.60;99.90;;;;;;5093497;28;20325;-69
2023/05/06 06:18:26;;;;;;;5.40;5.00;;;11.60;99.90;;;;;;5099043;28;20198;-69
2023/05/06 06:20:53;;;;;;;6.67;5.27;;;11.60;99.90;;;;;;5086146;28;20543;-69
2023/05/06 06:23:20;;;;;;;7.90;5.00;;;11.50;99.90;;;;;;5085921;28;20298;-69
2023/05/06 06:25:47;;;;;;;6.17;5.57;;;11.50;99.90;;;;;;5085973;28;20230;-69
2023/05/06 06:28:14;;;;;;;6.90;5.70;;;11.60;99.90;;;;;;5085813;28;20210;-69
2023/05/06 06:30:41;;;;;;;6.30;5.70;;;11.50;99.90;;;;;;5085542;28;20215;-69
2023/05/06 06:33:10;;;;;;;5.87;5.17;;;11.40;99.90;;;;;;5085585;28;20215;-69
2023/05/06 06:35:36;;;;;;;5.37;4.87;;;11.40;99.90;;;;;;5087049;28;20744;-69
2023/05/06 06:38:03;;;;;;;6.17;5.20;;;11.40;99.90;;;;;;5095993;28;20194;-70
2023/05/06 06:40:30;;;;;;;8.40;6.10;;;11.30;99.90;;;;;;5099345;27;20237;-69
2023/05/06 06:42:57;;;;;;;6.00;5.40;;;11.30;99.90;;;;;;5104428;28;20202;-69
2023/05/06 06:45:24;;;;;;;5.93;5.33;;;11.20;99.90;;;;;;5105524;28;20222;-69
2023/05/06 06:47:51;;;;;;;5.50;5.00;;;11.20;99.90;;;;;;5104612;28;20271;-69
2023/05/06 06:50:19;;;;;;;6.10;5.27;;;11.20;99.90;;;;;;5103989;28;20697;-70
2023/05/06 06:52:46;;;;;;;5.40;4.90;;;11.20;99.90;;;;;;5107455;27;20308;-70
2023/05/06 06:55:13;;;;;;;5.70;5.10;;;11.20;99.90;;;;;;5106771;28;20854;-69
2023/05/06 06:57:40;;;;;;;6.23;4.73;;;11.20;99.90;;;;;;5107542;27;20292;-69
2023/05/06 07:00:08;;;;;;;5.17;4.77;;;11.20;99.90;;;;;;5102171;27;20207;-69
2023/05/06 07:02:35;;;;;;;7.13;5.10;;;11.20;99.90;;;;;;5104522;28;20247;-70
2023/05/06 07:05:02;;;;;;;5.77;5.13;;;11.10;99.90;;;;;;5106609;27;20309;-69
2023/05/06 07:07:31;;;;;;;5.57;5.03;;;11.10;99.90;;;;;;5107121;28;20216;-70
2023/05/06 07:09:58;;;;;;;6.03;4.90;;;11.10;99.90;;;;;;5107159;28;20210;-69
2023/05/06 07:12:25;;;;;;;6.13;5.17;;;11.10;99.90;;;;;;5106999;28;20241;-69
2023/05/06 07:14:52;;;;;;;5.03;4.63;;;11.00;99.90;;;;;;5106613;28;20199;-69
2023/05/06 07:17:19;;;;;;;7.50;5.60;;;11.10;99.90;;;;;;5096086;28;20207;-70
2023/05/06 07:19:46;;;;;;;6.40;5.17;;;11.20;99.90;;;;;;5086210;28;20207;-69
2023/05/06 07:22:13;;;;;;;5.73;4.90;;;11.20;99.90;;;;;;5086192;28;20602;-69
2023/05/06 07:24:41;;;;;;;6.67;5.03;;;11.30;99.90;;;;;;5090912;28;20739;-70
2023/05/06 07:27:08;;;;;;;6.57;5.90;;;11.30;99.90;;;;;;5106244;28;20715;-69
2023/05/06 07:29:36;;;;;;;6.00;5.50;;;11.30;99.90;;;;;;5114210;27;20205;-69
2023/05/06 07:32:03;;;;;;;7.17;5.40;;;11.20;99.90;;;;;;5127105;27;20206;-70
2023/05/06 07:34:30;;;;;;;7.57;5.67;;;11.20;99.90;;;;;;5122865;27;20206;-70
2023/05/06 07:36:57;;;;;;;7.20;5.57;;;11.20;99.90;;;;;;5109737;27;20206;-69
2023/05/06 07:39:24;;;;;;;5.73;5.23;;;11.20;99.90;;;;;;5086063;28;20199;-69
2023/05/06 07:41:52;;;;;;;5.87;4.90;;;11.20;99.90;;;;;;5085649;28;20259;-69
2023/05/06 07:44:20;;;;;;;6.00;5.50;;;11.30;99.90;;;;;;5087630;28;20254;-69
2023/05/06 07:46:47;;;;;;;6.20;5.63;;;11.20;99.90;;;;;;5125446;27;20308;-70
2023/05/06 07:49:14;;;;;;;6.83;5.50;;;11.20;99.90;;;;;;5111905;27;20198;-69
2023/05/06 07:51:42;;;;;;;6.37;5.77;;;11.30;99.90;;;;;;5106386;28;20632;-69
2023/05/06 07:54:10;;;;;;;6.77;6.17;;;11.30;99.90;;;;;;5104696;28;20753;-69
2023/05/06 07:56:36;;;;;;;6.30;5.70;;;11.30;99.90;;;;;;5105754;28;20673;-69
2023/05/06 07:59:05;;;;;;;6.23;5.60;;;11.20;99.90;;;;;;5093116;28;20672;-70
2023/05/06 08:01:32;;;;;;;5.63;5.23;;;11.30;99.90;;;;;;5105886;28;20320;-70
2023/05/06 08:03:59;;;;;;;5.83;5.30;;;11.30;99.90;;;;;;5106241;28;20292;-70
2023/05/06 08:06:26;;;;;;;6.17;5.57;;;11.20;99.90;;;;;;5087377;28;20607;-70
2023/05/06 08:08:53;;;;;;;7.07;5.77;;;11.10;99.90;;;;;;5091427;28;20637;-69
2023/05/06 08:11:20;;;;;;;6.40;5.90;;;11.10;99.90;;;;;;5105425;28;20242;-69
2023/05/06 08:13:47;;;;;;;6.73;6.13;;;11.20;99.90;;;;;;5106025;27;20213;-69
2023/05/06 08:16:15;;;;;;;6.53;5.97;;;11.20;99.90;;;;;;5089656;28;20198;-70
2023/05/06 08:18:42;;;;;;;6.60;5.57;;;11.20;99.90;;;;;;5102965;28;20325;-69
2023/05/06 08:21:09;;;;;;;6.40;5.90;;;11.20;99.90;;;;;;5105771;28;20761;-69
2023/05/06 08:23:36;;;;;;;6.90;5.90;;;11.30;99.90;;;;;;5106235;28;20574;-69
2023/05/06 08:26:03;;;;;;;6.53;5.93;;;11.20;99.90;;;;;;5089690;28;20776;-70
2023/05/06 08:28:30;;;;;;;5.97;5.47;;;11.30;99.90;;;;;;5085194;28;20680;-69
2023/05/06 08:30:57;;;;;;;6.73;6.20;;;11.30;99.90;;;;;;5104817;28;20218;-70
2023/05/06 08:33:26;;;;;;;6.30;5.80;;;11.40;99.90;;;;;;5091319;28;20205;-69
2023/05/06 08:35:52;;;;;;;8.67;6.33;;;11.30;99.90;;;;;;5085351;28;20305;-69
2023/05/06 08:38:19;;;;;;;6.13;5.63;;;11.30;99.90;;;;;;5085241;28;20661;-70
2023/05/06 08:40:49;;;;;;;7.37;6.30;;;11.40;99.90;;;;;;5084983;28;20213;-70
2023/05/06 08:43:20;;;;;;;7.40;6.73;;;11.40;99.90;;;;;;5083997;28;20267;-69
2023/05/06 08:45:49;;;;;;;6.70;6.03;;;11.50;99.90;;;;;;5084617;28;20218;-69
2023/05/06 08:48:16;;;;;;;6.73;6.13;;;11.60;99.90;;;;;;5084674;28;20214;-70
2023/05/06 08:50:45;;;;;;;6.30;5.80;;;11.50;99.90;;;;;;5085266;28;20666;-69
2023/05/06 08:53:12;;;;;;;6.87;6.27;;;11.50;99.90;;;;;;5085332;28;20226;-69
2023/05/06 08:55:41;;;;;;;6.83;6.23;;;11.50;99.90;;;;;;5084801;28;20232;-69
2023/05/06 08:58:10;;;;;;;8.27;6.10;;;11.50;99.90;;;;;;5084926;28;20755;-69
2023/05/06 09:00:37;;;;;;;6.80;6.20;;;11.50;99.90;;;;;;5088510;28;20239;-70
2023/05/06 09:03:05;;;;;;;6.37;5.93;;;11.50;99.90;;;;;;5090047;28;20553;-69
2023/05/06 09:05:32;;;;;;;6.57;6.07;;;11.50;99.90;;;;;;5106133;28;20265;-69
2023/05/06 09:08:00;;;;;;;6.20;5.70;;;11.50;99.90;;;;;;5109594;28;20350;-69
2023/05/06 09:10:32;;;;;;;8.77;7.10;;;11.50;99.90;;;;;;5109684;27;20309;-69
2023/05/06 09:12:59;;;;;;;6.63;6.10;;;11.40;99.90;;;;;;5108463;27;20257;-69
2023/05/06 09:15:26;;;;;;;7.40;6.70;;;11.40;99.90;;;;;;5109019;28;20201;-69
2023/05/06 09:17:55;;;;;;;7.03;6.43;;;11.40;99.90;;;;;;5097469;28;20227;-69
2023/05/06 09:20:21;;;;;;;6.50;5.90;;;11.30;99.90;;;;;;5088780;28;20294;-69
2023/05/06 09:22:48;;;;;;;7.30;6.80;;;11.40;99.90;;;;;;5089217;28;20207;-70
2023/05/06 09:25:17;;;;;;;6.83;6.33;;;11.40;99.90;;;;;;5088307;28;20586;-70
2023/05/06 09:27:44;;;;;;;7.17;6.57;;;11.50;99.90;;;;;;5088982;28;20293;-70
2023/05/06 09:30:12;;;;;;;6.70;6.10;;;11.50;99.90;;;;;;5094992;27;20290;-69
2023/05/06 09:32:39;;;;;;;6.83;6.33;;;11.50;99.90;;;;;;5088868;28;20258;-70
2023/05/06 09:35:07;;;;;;;7.13;6.57;;;11.40;99.90;;;;;;5088380;28;20298;-69
2023/05/06 09:37:34;;;;;;;6.90;6.30;;;11.40;99.90;;;;;;5093317;28;20290;-69
2023/05/06 09:40:01;;;;;;;6.70;6.20;;;11.40;99.90;;;;;;5108882;28;20591;-69
2023/05/06 09:42:30;;;;;;;7.27;6.67;;;11.40;99.90;;;;;;5098766;28;20202;-69
2023/05/06 09:44:58;;;;;;;6.93;6.33;;;11.40;99.90;;;;;;5088558;28;20214;-69
2023/05/06 09:47:27;;;;;;;7.10;6.47;;;11.40;99.90;;;;;;5088390;28;20322;-69
2023/05/06 09:49:58;;;;;;;6.80;6.23;;;11.50;99.90;;;;;;5108466;28;20327;-70
2023/05/06 09:52:26;;;;;;;7.27;6.67;;;11.50;99.90;;;;;;5107140;28;20197;-70
2023/05/06 09:54:53;;;;;;;6.63;6.13;;;11.70;99.90;;;;;;5108475;28;20718;-69
2023/05/06 09:57:22;;;;;;;6.03;5.63;;;11.70;99.90;;;;;;5108477;28;20574;-69
2023/05/06 09:59:51;;;;;;;6.23;5.73;;;11.70;99.90;;;;;;5099817;28;20210;-70
2023/05/06 10:02:19;;;;;;;6.40;5.80;;;11.60;99.90;;;;;;5094605;28;20206;-69
2023/05/06 10:04:49;;;;;;;6.73;6.13;;;11.60;99.90;;;;;;5108464;28;20715;-69
2023/05/06 10:07:21;;;;;;;6.50;6.00;;;11.70;99.90;;;;;;5108332;28;20233;-70
2023/05/06 10:09:49;;;;;;;6.90;6.40;;;11.60;99.90;;;;;;5101806;28;20191;-70
2023/05/06 10:12:17;;;;;;;6.67;6.07;;;11.60;99.90;;;;;;5094588;28;20230;-69
2023/05/06 10:14:44;;;;;;;6.87;6.17;;;11.60;99.90;;;;;;5107987;28;20206;-70
2023/05/06 10:17:13;;;;;;;6.90;6.30;;;11.70;99.90;;;;;;5091810;28;20293;-69
2023/05/06 10:19:44;;;;;;;6.03;5.53;;;11.70;99.90;;;;;;5087749;28;20260;-69
2023/05/06 10:22:19;;;;;;;6.13;5.73;;;11.80;99.90;;;;;;5092568;28;20281;-70
2023/05/06 10:24:53;;;;;;;7.53;5.50;;;11.80;99.90;;;;;;5099767;28;20190;-69
2023/05/06 10:27:23;;;;;;;6.10;5.60;;;11.90;99.90;;;;;;5094334;28;20219;-69
2023/05/06 10:29:53;;;;;;;6.00;5.60;;;11.90;99.90;;;;;;5097364;27;20209;-70
2023/05/06 10:32:21;;;;;;;6.20;5.63;;;11.90;99.90;;;;;;5107983;28;20267;-69
2023/05/06 10:34:54;;;;;;;6.33;5.83;;;11.80;99.90;;;;;;5107661;28;20206;-69
2023/05/06 10:37:24;;;;;;;6.10;5.60;;;11.90;99.90;;;;;;5108247;28;20279;-70
2023/05/06 10:39:53;;;;;;;11.07;5.87;;;11.80;99.90;;;;;;5107782;28;20195;-70
2023/05/06 10:42:20;;;;;;;6.70;6.20;;;11.80;99.90;;;;;;5106394;27;20202;-69
2023/05/06 10:44:57;;;;;;;6.10;5.60;;;11.80;99.90;;;;;;5107489;28;20788;-70
2023/05/06 10:47:26;;;;;;;6.10;5.70;;;11.70;99.90;;;;;;5106524;28;20870;-70
2023/05/06 10:50:18;;;;;;;6.77;6.27;;;11.70;99.90;;;;;;5107146;28;20854;-69
2023/05/06 10:52:46;;;;;;;6.73;6.20;;;11.70;99.90;;;;;;5107521;28;20210;-70
2023/05/06 10:55:26;;;;;;;6.73;6.13;;;11.70;99.90;;;;;;5086566;28;20309;-69
2023/05/06 10:57:55;;;;;;;7.10;6.43;;;11.60;99.90;;;;;;5089490;28;20194;-70
2023/05/06 11:00:22;;;;;;;6.17;5.70;;;11.60;99.90;;;;;;5093465;28;20218;-69
2023/05/06 11:02:55;;;;;;;6.97;6.47;;;11.60;99.90;;;;;;5087037;28;20203;-69
2023/05/06 11:05:22;;;;;;;7.17;6.67;;;11.50;99.90;;;;;;5086729;28;20201;-70
2023/05/06 11:07:50;;;;;;;7.10;6.60;;;11.60;99.90;;;;;;5086455;28;20794;-70
2023/05/06 11:10:32;;;;;;;7.37;6.67;;;11.50;99.90;;;;;;5094697;28;20668;-70
2023/05/06 11:13:18;;;;;;;8.43;7.00;;;11.60;99.90;;;;;;5091710;28;20230;-69
2023/05/06 11:15:46;;;;;;;7.07;6.53;;;11.60;99.90;;;;;;5086977;28;20214;-69
2023/05/06 11:18:44;;;;;;;7.37;6.77;;;11.60;99.90;;;;;;5086665;28;20276;-69
2023/05/06 11:21:36;;;;;;;6.50;6.00;;;11.60;99.90;;;;;;5086080;28;20225;-69
2023/05/06 11:24:11;;;;;;;6.13;5.73;;;11.50;99.90;;;;;;5087229;28;20729;-69
2023/05/06 11:26:41;;;;;;;7.13;6.53;;;11.60;99.90;;;;;;5086515;28;20221;-70
2023/05/06 11:29:08;;;;;;;6.67;6.07;;;11.60;99.90;;;;;;5093263;27;20216;-69
2023/05/06 11:31:39;;;;;;;6.17;5.77;;;11.60;99.90;;;;;;5109808;27;20303;-69
2023/05/06 11:34:13;;;;;;;5.90;5.47;;;11.60;99.90;;;;;;5098956;28;20191;-69
2023/05/06 11:36:57;;;;;;;7.23;5.80;;;11.50;99.90;;;;;;5085930;28;20238;-69
2023/05/06 11:39:24;;;;;;;5.80;5.30;;;11.50;99.90;;;;;;5085898;28;20650;-69
2023/05/06 11:41:53;;;;;;;5.10;4.70;;;11.50;99.90;;;;;;5085609;28;20252;-69
2023/05/06 11:44:27;;;;;;;5.50;5.10;;;11.40;99.90;;;;;;5085880;28;20293;-69
2023/05/06 11:46:59;;;;;;;4.97;4.57;;;11.40;99.90;;;;;;5100759;28;20217;-69
2023/05/06 11:49:27;;;;;;;4.77;4.47;;;11.40;99.90;;;;;;5093487;28;20285;-69
2023/05/06 11:51:55;;;;;;;4.80;4.50;;;11.40;99.90;;;;;;5102076;28;20203;-69
2023/05/06 11:54:23;;;;;;;4.53;4.30;;;11.50;99.90;;;;;;5085750;28;20235;-69
2023/05/06 11:56:51;;;;;;;4.30;3.90;;;11.30;99.90;;;;;;5085695;28;20666;-69
2023/05/06 11:59:25;;;;;;;4.50;4.20;;;11.30;99.90;;;;;;5090624;28;20209;-69
2023/05/06 12:01:52;;;;;;;5.27;4.77;;;11.30;99.90;;;;;;5090541;27;20226;-70
2023/05/06 12:04:19;;;;;;;5.67;5.10;;;11.30;99.90;;;;;;5085890;28;20377;-69
2023/05/06 12:06:47;;;;;;;5.20;4.80;;;11.30;99.90;;;;;;5085893;28;20348;-69
2023/05/06 12:09:14;;;;;;;5.73;4.80;;;11.30;99.90;;;;;;5085902;28;20321;-70
2023/05/06 12:11:43;;;;;;;3.90;3.63;;;11.40;99.90;;;;;;5085323;28;20318;-69
2023/05/06 12:14:10;;;;;;;4.97;4.47;;;11.40;99.90;;;;;;5085724;28;20256;-69
2023/05/06 12:16:38;;;;;;;4.73;4.27;;;11.40;99.90;;;;;;5088123;28;20289;-70
2023/05/06 12:19:05;;;;;;;5.57;3.93;;;11.40;99.90;;;;;;5102150;28;20233;-70
2023/05/06 12:21:37;;;;;;;4.93;4.53;;;11.50;99.90;;;;;;5105121;28;20206;-70
2023/05/06 12:24:06;;;;;;;4.83;4.47;;;11.50;99.90;;;;;;5105706;28;20633;-69
2023/05/06 12:26:43;;;;;;;4.60;4.20;;;11.50;99.90;;;;;;5102914;28;20202;-69
2023/05/06 12:29:14;;;;;;;4.50;3.80;;;11.60;99.90;;;;;;5101477;28;20206;-69
2023/05/06 12:31:41;;;;;;;3.70;3.50;;;11.50;99.90;;;;;;5095525;28;20190;-69
2023/05/06 12:34:09;;;;;;;5.97;3.97;;;11.50;99.90;;;;;;5103917;28;20237;-70
2023/05/06 12:36:40;;;;;;;4.93;4.13;;;11.50;99.90;;;;;;5105826;28;20816;-69
2023/05/06 12:39:10;;;;;;;3.77;3.47;;;11.50;99.90;;;;;;5105372;28;20190;-70
2023/05/06 12:41:41;;;;;;;5.17;4.20;;;11.50;99.90;;;;;;5105588;28;20623;-70
2023/05/06 12:44:31;;;;;;;3.90;3.60;;;11.50;99.90;;;;;;5091772;28;20278;-69
2023/05/06 12:46:58;;;;;;;3.80;3.50;;;11.40;99.90;;;;;;5099721;28;20229;-69
2023/05/06 12:49:25;;;;;;;4.23;3.67;;;11.30;99.90;;;;;;5097153;28;20198;-69
2023/05/06 12:52:06;;;;;;;3.40;3.10;;;11.30;99.90;;;;;;5093751;28;20197;-70